Time;durP1;ratioP1;P1;durP2;ratioP2;P2;SDS_P1;SDS_P2;PMS_P1;PMS_P2;Temp;Humidity;BMP_temperature;BMP_pressure;BME280_temperature;BME280_humidity;BME280_pressure;Samples;Min_cycle;Max_cycle;Signal;HPM_P1;HPM_P2
2022/03/08 00:01:13;;;;;;;50.70;22.67;;;;;;;0.86;100.00;97305.47;5037718;28;20038;-88
2022/03/08 00:03:39;;;;;;;54.83;24.02;;;;;;;1.10;100.00;97328.47;5019659;28;20038;-87
2022/03/08 00:06:05;;;;;;;52.95;23.33;;;;;;;1.32;100.00;97363.84;5024255;28;20030;-87
2022/03/08 00:08:31;;;;;;;51.25;23.13;;;;;;;0.95;100.00;97313.09;5006144;28;20452;-87
2022/03/08 00:11:02;;;;;;;53.83;23.80;;;;;;;0.66;100.00;97240.22;5014851;28;20109;-85
2022/03/08 00:13:29;;;;;;;53.10;24.92;;;;;;;1.18;100.00;97320.34;5007690;28;20065;-88
2022/03/08 00:15:54;;;;;;;51.90;23.02;;;;;;;1.08;100.00;97306.56;5002696;28;20069;-87
2022/03/08 00:18:20;;;;;;;47.50;22.08;;;;;;;1.24;100.00;97339.47;5013373;28;20037;-87
2022/03/08 00:20:46;;;;;;;51.60;24.00;;;;;;;1.02;100.00;97289.19;5012889;28;20034;-88
2022/03/08 00:23:12;;;;;;;47.35;23.05;;;;;;;1.49;100.00;97355.44;5008370;28;20033;-87
2022/03/08 00:25:38;;;;;;;53.33;23.33;;;;;;;1.04;100.00;97287.38;5004061;28;20030;-87
2022/03/08 00:28:04;;;;;;;55.17;26.10;;;;;;;1.11;100.00;97308.28;5011584;28;20022;-87
2022/03/08 00:30:30;;;;;;;55.65;25.75;;;;;;;1.02;100.00;97293.56;5014351;28;20029;-87
2022/03/08 00:32:55;;;;;;;54.03;24.77;;;;;;;0.96;100.00;97273.56;5010404;28;20056;-87
2022/03/08 00:35:23;;;;;;;55.97;25.15;;;;;;;0.82;100.00;97244.16;5034724;28;20026;-87
2022/03/08 00:37:49;;;;;;;52.55;23.33;;;;;;;1.08;100.00;97296.03;5018894;28;20109;-87
2022/03/08 00:40:17;;;;;;;46.05;22.60;;;;;;;0.82;100.00;97249.41;5022526;28;20024;-88
2022/03/08 00:42:43;;;;;;;50.58;22.10;;;;;;;1.13;100.00;97299.41;5004647;28;20076;-88
2022/03/08 00:45:09;;;;;;;39.85;18.60;;;;;;;0.79;100.00;97253.91;5023043;28;20088;-87
2022/03/08 00:47:42;;;;;;;43.55;19.27;;;;;;;0.61;100.00;97250.00;5027523;28;20064;-88
2022/03/08 00:50:14;;;;;;;37.53;18.05;;;;;;;1.10;100.00;97312.69;5024999;28;20018;-87
2022/03/08 00:52:48;;;;;;;39.47;18.60;;;;;;;0.53;100.00;97223.03;5019247;28;20041;-87
2022/03/08 00:55:17;;;;;;;43.50;20.48;;;;;;;0.54;100.00;97237.94;5025621;28;20061;-87
2022/03/08 00:57:43;;;;;;;48.15;23.13;;;;;;;0.56;100.00;97246.63;5027093;28;20053;-88
2022/03/08 01:00:11;;;;;;;45.30;20.50;;;;;;;0.95;100.00;97308.69;5024909;28;20114;-88
2022/03/08 01:02:37;;;;;;;42.13;19.60;;;;;;;0.93;100.00;97299.09;5022557;28;20033;-88
2022/03/08 01:05:03;;;;;;;46.35;20.85;;;;;;;0.91;100.00;97296.53;5003967;28;20064;-87
2022/03/08 01:07:29;;;;;;;48.95;24.10;;;;;;;1.17;100.00;97350.25;5008062;28;20034;-88
2022/03/08 01:09:56;;;;;;;55.15;24.73;;;;;;;0.68;100.00;97296.28;4993408;28;20034;-88
2022/03/08 01:12:28;;;;;;;55.65;25.25;;;;;;;0.77;100.00;97329.41;5022076;28;20148;-87
2022/03/08 01:14:53;;;;;;;59.03;25.08;;;;;;;0.90;100.00;97351.84;5014733;28;20091;-87
2022/03/08 01:17:19;;;;;;;53.60;25.90;;;;;;;0.42;100.00;97238.25;5012783;28;20037;-88
2022/03/08 01:19:45;;;;;;;56.25;24.92;;;;;;;0.98;100.00;97307.75;5011169;28;20030;-88
2022/03/08 01:22:11;;;;;;;53.85;24.58;;;;;;;0.99;100.00;97305.06;5024826;28;20091;-88
2022/03/08 01:24:37;;;;;;;54.75;25.63;;;;;;;1.05;100.00;97319.81;5012624;28;20021;-88
2022/03/08 01:27:09;;;;;;;54.72;25.30;;;;;;;0.58;100.00;97229.06;5004593;28;20045;-87
2022/03/08 01:29:37;;;;;;;57.88;26.27;;;;;;;0.86;100.00;97281.78;5000140;28;20036;-88
2022/03/08 01:32:03;;;;;;;57.40;25.63;;;;;;;0.89;100.00;97292.22;4999711;28;20069;-88
2022/03/08 01:34:34;;;;;;;50.90;23.92;;;;;;;0.86;100.00;97277.34;5002577;28;20405;-87
2022/03/08 01:37:00;;;;;;;58.42;26.38;;;;;;;0.58;100.00;97238.72;4995586;28;20034;-88
2022/03/08 01:39:29;;;;;;;53.88;25.63;;;;;;;1.07;100.00;97311.00;5003535;28;20036;-87
2022/03/08 01:41:55;;;;;;;51.60;25.80;;;;;;;0.70;100.00;97246.25;5017194;28;20046;-87
2022/03/08 01:44:25;;;;;;;46.30;23.25;;;;;;;1.04;100.00;97297.91;4999243;28;20053;-88
2022/03/08 01:46:51;;;;;;;56.03;25.70;;;;;;;0.82;100.00;97270.47;4992329;28;20065;-87
2022/03/08 01:49:17;;;;;;;54.42;24.52;;;;;;;0.91;100.00;97275.47;5000451;28;20029;-87
2022/03/08 01:51:43;;;;;;;50.90;24.27;;;;;;;0.87;100.00;97273.81;4997278;28;20065;-87
2022/03/08 01:54:09;;;;;;;49.90;22.05;;;;;;;0.64;100.00;97251.69;5006445;28;20120;-88
2022/03/08 01:56:35;;;;;;;55.97;25.40;;;;;;;0.64;100.00;97272.75;5001174;28;20032;-87
2022/03/08 01:59:04;;;;;;;52.13;24.08;;;;;;;0.41;100.00;97239.16;5003934;28;20042;-88
2022/03/08 02:01:30;;;;;;;53.00;24.50;;;;;;;0.72;100.00;97265.50;4991013;28;20132;-88
2022/03/08 02:03:55;;;;;;;53.75;23.80;;;;;;;0.91;100.00;97287.75;4999828;28;20207;-89
2022/03/08 02:06:21;;;;;;;52.38;23.73;;;;;;;1.05;100.00;97288.22;4998063;28;20007;-89
2022/03/08 02:08:47;;;;;;;55.88;24.33;;;;;;;0.86;100.00;97260.72;5001853;28;20472;-89
2022/03/08 02:11:13;;;;;;;56.15;25.10;;;;;;;1.05;100.00;97293.50;5022533;28;20059;-88
2022/03/08 02:13:43;;;;;;;54.97;25.77;;;;;;;0.80;100.00;97229.31;4996201;28;20034;-88
2022/03/08 02:16:10;;;;;;;48.85;23.83;;;;;;;0.68;100.00;97224.41;4997258;28;20027;-88
2022/03/08 02:18:36;;;;;;;57.53;24.40;;;;;;;1.02;100.00;97293.56;4998800;28;20030;-87
2022/03/08 02:21:05;;;;;;;55.33;23.92;;;;;;;0.94;100.00;97291.19;4995928;28;20026;-87
2022/03/08 02:23:31;;;;;;;53.35;24.17;;;;;;;1.00;100.00;97314.69;4997360;28;20398;-87
2022/03/08 02:25:57;;;;;;;54.53;24.20;;;;;;;1.07;100.00;97318.91;4995340;28;20030;-88
2022/03/08 02:28:24;;;;;;;57.25;26.30;;;;;;;1.09;100.00;97305.66;4999201;28;20022;-88
2022/03/08 02:30:50;;;;;;;48.33;22.42;;;;;;;0.87;100.00;97268.56;4993530;28;20022;-88
2022/03/08 02:33:15;;;;;;;55.10;25.45;;;;;;;0.80;100.00;97271.44;4995521;28;20076;-88
2022/03/08 02:35:41;;;;;;;55.22;24.45;;;;;;;0.72;100.00;97273.38;5002150;28;20405;-88
2022/03/08 02:38:07;;;;;;;53.00;25.20;;;;;;;0.94;100.00;97314.00;5003153;28;20056;-88
2022/03/08 02:40:37;;;;;;;55.90;25.05;;;;;;;1.13;100.00;97341.56;4984229;28;20039;-88
2022/03/08 02:43:05;;;;;;;61.72;24.45;;;;;;;0.90;100.00;97289.53;4987468;28;20116;-87
2022/03/08 02:45:33;;;;;;;50.53;23.20;;;;;;;1.20;100.00;97344.88;5001292;28;20155;-88
2022/03/08 02:48:02;;;;;;;54.75;25.38;;;;;;;0.54;100.00;97238.78;4994697;28;20042;-88
2022/03/08 02:50:28;;;;;;;61.28;25.95;;;;;;;0.57;100.00;97253.63;4993489;28;20033;-87
2022/03/08 02:52:58;;;;;;;56.47;24.85;;;;;;;0.52;100.00;97240.59;4997196;28;20026;-88
2022/03/08 02:55:26;;;;;;;94.85;33.80;;;;;;;0.62;100.00;97245.59;4997378;28;20033;-87
2022/03/08 02:57:53;;;;;;;72.78;27.15;;;;;;;0.66;100.00;97261.25;4995455;28;20041;-88
2022/03/08 03:00:19;;;;;;;59.50;25.55;;;;;;;0.97;100.00;97327.94;5012174;28;20021;-87
2022/03/08 03:02:46;;;;;;;53.70;25.10;;;;;;;0.74;100.00;97279.50;5001766;28;20032;-86
2022/03/08 03:05:13;;;;;;;47.42;21.55;;;;;;;0.95;100.00;97313.09;4992065;28;20033;-89
2022/03/08 03:07:39;;;;;;;41.47;20.38;;;;;;;0.69;100.00;97289.25;5004785;28;20093;-90
2022/03/08 03:10:13;;;;;;;41.67;20.40;;;;;;;0.90;100.00;97312.34;4997654;28;20036;-89
2022/03/08 03:12:40;;;;;;;44.28;20.63;;;;;;;0.68;100.00;97266.50;5003843;28;20132;-88
2022/03/08 03:15:08;;;;;;;43.60;20.52;;;;;;;0.81;100.00;97307.34;4993150;28;20013;-88
2022/03/08 03:17:34;;;;;;;41.85;20.85;;;;;;;0.73;100.00;97304.06;4996622;28;20049;-88
2022/03/08 03:19:59;;;;;;;50.40;22.13;;;;;;;0.38;100.00;97253.25;4997506;28;20108;-87
2022/03/08 03:22:25;;;;;;;47.05;21.60;;;;;;;0.91;100.00;97317.59;4988376;28;20045;-88
2022/03/08 03:24:55;;;;;;;43.70;22.13;;;;;;;1.11;100.00;97348.63;4990249;28;20501;-88
2022/03/08 03:27:20;;;;;;;44.05;20.45;;;;;;;0.86;100.00;97313.38;4991115;28;20482;-87
2022/03/08 03:29:48;;;;;;;47.25;20.80;;;;;;;1.04;100.00;97361.13;4992193;28;20044;-87
2022/03/08 03:32:14;;;;;;;45.40;22.55;;;;;;;0.78;100.00;97334.63;4989475;28;20033;-88
2022/03/08 03:34:40;;;;;;;55.10;25.02;;;;;;;0.72;100.00;97310.22;4998664;28;20030;-87
2022/03/08 03:37:06;;;;;;;53.03;22.67;;;;;;;0.82;100.00;97340.66;4986100;28;20030;-88
2022/03/08 03:39:31;;;;;;;60.45;24.33;;;;;;;0.51;100.00;97283.59;4999922;28;20034;-88
2022/03/08 03:41:57;;;;;;;54.75;23.63;;;;;;;0.77;100.00;97313.63;4983777;28;20041;-86
2022/03/08 03:44:23;;;;;;;55.35;24.08;;;;;;;0.90;100.00;97333.41;4990218;28;20409;-86
2022/03/08 03:46:48;;;;;;;55.03;24.33;;;;;;;0.95;100.00;97340.28;4983426;28;20026;-88
2022/03/08 03:49:14;;;;;;;52.25;24.45;;;;;;;0.66;100.00;97300.75;5012273;28;20041;-87
2022/03/08 03:51:40;;;;;;;55.70;23.92;;;;;;;1.19;100.00;97375.63;4987378;28;20037;-87
2022/03/08 03:54:06;;;;;;;56.85;25.00;;;;;;;1.03;100.00;97366.41;4988446;28;20026;-88
2022/03/08 03:56:32;;;;;;;53.17;23.95;;;;;;;0.76;100.00;97319.78;4991382;28;20101;-87
2022/03/08 03:58:57;;;;;;;57.08;24.58;;;;;;;0.58;100.00;97291.34;4995728;28;20477;-87
2022/03/08 04:01:23;;;;;;;58.05;25.17;;;;;;;0.75;100.00;97315.41;5010794;28;20026;-87
2022/03/08 04:03:49;;;;;;;59.28;25.52;;;;;;;0.91;100.00;97337.78;4994860;28;20030;-87
2022/03/08 04:06:14;;;;;;;62.38;25.25;;;;;;;1.19;100.00;97375.63;4992733;28;20045;-87
2022/03/08 04:08:40;;;;;;;60.70;27.20;;;;;;;0.71;100.00;97293.56;4989579;28;20470;-89
2022/03/08 04:11:08;;;;;;;94.97;37.80;;;;;;;0.88;100.00;97353.66;4990490;28;20061;-88
2022/03/08 04:13:34;;;;;;;101.50;36.80;;;;;;;0.67;100.00;97333.19;4985193;28;20030;-87
2022/03/08 04:16:00;;;;;;;71.40;31.13;;;;;;;0.54;100.00;97295.81;4976485;28;20041;-87
2022/03/08 04:18:25;;;;;;;85.95;30.73;;;;;;;0.85;100.00;97351.97;4987541;28;20027;-85
2022/03/08 04:20:54;;;;;;;61.60;26.20;;;;;;;0.46;100.00;97303.06;5000389;28;20486;-87
2022/03/08 04:23:20;;;;;;;61.88;26.17;;;;;;;0.76;100.00;97344.34;4984076;28;20025;-88
2022/03/08 04:25:45;;;;;;;63.92;26.42;;;;;;;0.70;100.00;97351.53;5004545;28;20045;-88
2022/03/08 04:28:11;;;;;;;62.95;26.08;;;;;;;0.77;100.00;97355.72;4985542;28;20026;-88
2022/03/08 04:30:37;;;;;;;61.80;27.70;;;;;;;0.74;100.00;97340.84;4985831;28;20467;-88
2022/03/08 04:33:02;;;;;;;60.70;27.60;;;;;;;0.62;100.00;97335.06;5001551;28;20026;-87
2022/03/08 04:35:28;;;;;;;55.17;24.52;;;;;;;0.74;100.00;97358.44;4983946;28;20069;-88
2022/03/08 04:37:56;;;;;;;70.18;30.83;;;;;;;0.83;100.00;97376.63;4993379;28;20026;-89
2022/03/08 04:40:24;;;;;;;63.28;26.83;;;;;;;0.32;100.00;97284.97;4995467;28;20026;-89
2022/03/08 04:42:50;;;;;;;61.88;26.63;;;;;;;0.60;100.00;97326.34;4991699;28;20069;-82
2022/03/08 04:45:16;;;;;;;61.40;26.88;;;;;;;0.81;100.00;97352.97;5013317;28;20030;-84
2022/03/08 04:47:41;;;;;;;63.80;26.95;;;;;;;0.80;100.00;97356.47;4996425;28;20478;-86
2022/03/08 04:50:14;;;;;;;66.03;27.27;;;;;;;0.86;100.00;97358.13;5013329;28;20132;-85
2022/03/08 04:52:39;;;;;;;;;;;;;;;1.16;100.00;97380.97;4996433;28;20491;-85
2022/03/08 04:55:05;;;;;;;66.10;27.02;;;;;;;0.68;100.00;97327.88;4995944;28;19964;-85
2022/03/08 04:57:31;;;;;;;67.03;27.33;;;;;;;0.78;100.00;97367.97;4982425;28;20037;-83
2022/03/08 04:59:58;;;;;;;63.50;27.95;;;;;;;0.94;100.00;97374.56;5031573;28;20460;-85
2022/03/08 05:02:24;;;;;;;60.97;25.10;;;;;;;0.86;100.00;97358.13;5011685;28;20116;-87
2022/03/08 05:04:50;;;;;;;57.78;24.73;;;;;;;0.83;100.00;97345.03;5010823;28;20044;-84
2022/03/08 05:07:15;;;;;;;59.45;27.23;;;;;;;0.73;100.00;97333.03;5012559;28;20165;-85
2022/03/08 05:09:41;;;;;;;62.30;26.42;;;;;;;0.68;100.00;97355.97;5035035;28;20025;-85
2022/03/08 05:12:08;;;;;;;63.55;27.55;;;;;;;0.70;100.00;97356.78;5018364;28;20489;-85
2022/03/08 05:14:42;;;;;;;64.32;25.27;;;;;;;0.94;100.00;97374.56;5012948;28;20484;-88
2022/03/08 05:17:23;;;;;;;55.35;24.25;;;;;;;0.67;100.00;97322.66;5008942;28;20087;-85
2022/03/08 05:19:49;;;;;;;64.97;27.23;;;;;;;0.92;100.00;97374.56;5007446;28;20037;-76
2022/03/08 05:22:15;;;;;;;57.67;24.95;;;;;;;1.02;100.00;97367.31;5015366;28;20026;-78
2022/03/08 05:24:40;;;;;;;56.75;25.80;;;;;;;1.15;100.00;97379.22;5030400;28;20116;-74
2022/03/08 05:27:07;;;;;;;61.83;25.60;;;;;;;1.28;100.00;97385.91;5032954;28;20061;-74
2022/03/08 05:29:33;;;;;;;62.67;27.90;;;;;;;1.41;100.00;97396.94;5018707;28;20026;-75
2022/03/08 05:31:59;;;;;;;66.45;27.25;;;;;;;1.43;100.00;97393.38;5021924;28;20485;-74
2022/03/08 05:34:25;;;;;;;72.78;28.58;;;;;;;1.18;100.00;97368.63;5027015;28;20037;-84
2022/03/08 05:36:51;;;;;;;62.60;28.25;;;;;;;1.18;100.00;97357.22;5033009;28;20119;-85
2022/03/08 05:39:28;;;;;;;64.60;28.42;;;;;;;1.28;100.00;97372.72;5001656;28;20037;-85
2022/03/08 05:41:57;;;;;;;53.35;24.63;;;;;;;1.31;100.00;97391.06;5004308;28;20060;-86
2022/03/08 05:44:23;;;;;;;54.22;23.92;;;;;;;1.27;100.00;97384.16;5007872;28;20029;-86
2022/03/08 05:46:50;;;;;;;52.80;24.15;;;;;;;1.02;100.00;97326.03;5008237;28;20029;-86
2022/03/08 05:49:16;;;;;;;49.38;23.13;;;;;;;1.20;100.00;97340.44;5007140;28;20036;-86
2022/03/08 05:51:43;;;;;;;39.10;17.48;;;;;;;1.62;100.00;97402.47;5013191;28;20107;-85
2022/03/08 05:54:09;;;;;;;45.22;21.85;;;;;;;1.64;100.00;97405.06;5024052;28;20026;-85
2022/03/08 05:56:35;;;;;;;49.60;21.80;;;;;;;1.38;100.00;97379.47;5006434;28;20413;-85
2022/03/08 05:59:01;;;;;;;40.30;19.27;;;;;;;1.25;100.00;97362.28;5023021;28;20054;-85
2022/03/08 06:01:29;;;;;;;45.20;19.23;;;;;;;1.04;100.00;97311.09;4981217;28;20040;-85
2022/03/08 06:03:55;;;;;;;32.72;16.77;;;;;;;1.29;100.00;97357.78;4994695;28;20041;-85
2022/03/08 06:06:21;;;;;;;34.58;16.08;;;;;;;1.13;100.00;97322.25;5013894;28;20552;-85
2022/03/08 06:08:49;;;;;;;33.58;16.58;;;;;;;1.61;100.00;97410.41;5014479;28;20033;-85
2022/03/08 06:11:17;;;;;;;30.38;16.05;;;;;;;1.60;100.00;97399.00;5011994;28;20021;-86
2022/03/08 06:13:49;;;;;;;28.45;15.40;;;;;;;1.22;100.00;97354.47;5018100;28;20405;-87
2022/03/08 06:16:15;;;;;;;24.13;11.55;;;;;;;1.36;100.00;97372.50;5000264;28;20034;-86
2022/03/08 06:18:44;;;;;;;28.75;15.55;;;;;;;1.44;100.00;97381.94;5005148;28;20025;-87
2022/03/08 06:21:09;;;;;;;25.88;14.20;;;;;;;1.64;100.00;97405.91;5018540;28;20037;-85
2022/03/08 06:23:36;;;;;;;33.08;15.98;;;;;;;1.65;100.00;97401.50;5031219;28;20017;-86
2022/03/08 06:26:02;;;;;;;87.28;47.20;;;;;;;1.49;100.00;97381.78;5008909;28;20033;-86
2022/03/08 06:28:31;;;;;;;44.45;25.60;;;;;;;1.46;100.00;97411.72;5022654;28;20650;-88
2022/03/08 06:30:56;;;;;;;30.55;15.75;;;;;;;1.44;100.00;97412.69;5012648;28;20469;-88
2022/03/08 06:33:22;;;;;;;27.23;14.45;;;;;;;1.41;100.00;97421.53;5000401;28;20037;-88
2022/03/08 06:35:48;;;;;;;28.98;15.15;;;;;;;1.31;100.00;97411.28;5003370;28;20033;-87
2022/03/08 06:38:14;;;;;;;28.75;16.55;;;;;;;1.39;100.00;97423.31;5008701;28;20037;-87
2022/03/08 06:40:42;;;;;;;26.85;14.68;;;;;;;1.35;100.00;97413.81;5005767;28;20088;-87
2022/03/08 06:43:08;;;;;;;29.88;15.38;;;;;;;1.58;100.00;97428.94;5010412;28;20100;-85
2022/03/08 06:45:36;;;;;;;28.98;15.43;;;;;;;1.74;100.00;97437.28;5014119;28;20033;-84
2022/03/08 06:48:02;;;;;;;30.58;15.80;;;;;;;1.85;100.00;97443.97;5011635;28;20025;-86
2022/03/08 06:50:31;;;;;;;55.15;23.55;;;;;;;1.71;100.00;97417.16;5016555;28;20072;-88
2022/03/08 06:52:57;;;;;;;35.90;16.13;;;;;;;1.85;100.00;97408.81;5017975;28;20036;-88
2022/03/08 06:55:26;;;;;;;36.15;17.95;;;;;;;2.07;100.00;97452.09;4999918;28;20026;-87
2022/03/08 06:57:51;;;;;;;39.13;18.33;;;;;;;1.96;100.00;97428.72;5029112;28;20050;-87
2022/03/08 07:00:17;;;;;;;26.13;14.35;;;;;;;1.60;100.00;97406.91;4981563;28;20030;-87
2022/03/08 07:02:44;;;;;;;38.90;22.08;;;;;;;1.43;100.00;97390.72;5009259;28;20103;-86
2022/03/08 07:05:10;;;;;;;37.50;18.88;;;;;;;1.45;100.00;97412.63;4997604;28;20022;-87
2022/03/08 07:07:44;;;;;;;30.80;15.40;;;;;;;1.64;100.00;97434.91;5018880;28;20036;-88
2022/03/08 07:10:10;;;;;;;34.55;17.00;;;;;;;1.61;100.00;97436.75;5007958;28;20028;-85
2022/03/08 07:12:36;;;;;;;39.22;18.55;;;;;;;1.64;100.00;97432.28;4997228;28;20509;-87
2022/03/08 07:15:04;;;;;;;37.58;18.27;;;;;;;1.76;100.00;97451.28;5005677;28;20513;-87
2022/03/08 07:17:30;;;;;;;30.15;14.90;;;;;;;1.71;100.00;97440.88;4999274;28;20038;-87
2022/03/08 07:19:58;;;;;;;28.55;15.43;;;;;;;1.32;100.00;97387.53;5000391;28;20151;-87
2022/03/08 07:22:24;;;;;;;24.70;14.38;;;;;;;1.56;100.00;97444.81;5001016;28;20472;-87
2022/03/08 07:24:50;;;;;;;30.77;15.70;;;;;;;1.46;100.00;97427.53;5001018;28;20065;-87
2022/03/08 07:27:22;;;;;;;30.40;16.65;;;;;;;1.47;100.00;97445.06;5008299;28;20200;-88
2022/03/08 07:33:23;;;;;;;27.73;15.25;;;;;;;1.42;100.00;97457.50;5036577;28;20035;-87
2022/03/08 07:42:32;;;;;;;32.92;16.50;;;;;;;1.64;100.00;97400.66;5017425;28;20033;-88
2022/03/08 07:44:58;;;;;;;37.08;18.05;;;;;;;2.09;100.00;97440.59;5005382;28;20018;-87
2022/03/08 07:47:46;;;;;;;35.10;17.77;;;;;;;2.52;99.77;97470.94;4982147;28;20113;-89
2022/03/08 07:50:22;;;;;;;35.53;18.85;;;;;;;2.36;96.87;97444.19;4991650;28;20117;-87
2022/03/08 07:55:15;;;;;;;33.08;15.60;;;;;;;2.22;92.57;97446.34;5067276;22;20505;-87
2022/03/08 08:04:29;;;;;;;32.42;16.08;;;;;;;2.47;87.75;97426.22;5015941;28;20037;-87
2022/03/08 08:06:55;;;;;;;26.85;15.18;;;;;;;3.05;88.57;97469.19;4986446;28;20504;-88
2022/03/08 08:09:27;;;;;;;28.63;15.02;;;;;;;2.93;82.79;97424.69;5006143;28;20033;-88
2022/03/08 08:11:52;;;;;;;35.78;18.75;;;;;;;3.11;83.45;97427.56;4992962;28;20064;-87
2022/03/08 08:14:29;;;;;;;38.00;18.67;;;;;;;3.16;84.42;97459.13;5044707;28;20029;-87
2022/03/08 08:16:55;;;;;;;38.10;18.50;;;;;;;3.33;84.82;97451.47;5007050;28;20041;-88
2022/03/08 08:19:20;;;;;;;36.97;18.23;;;;;;;3.29;81.95;97437.50;4989347;28;20025;-88
2022/03/08 08:21:46;;;;;;;35.42;16.65;;;;;;;3.45;80.16;97458.97;5010198;28;20485;-88
2022/03/08 08:24:12;;;;;;;34.45;18.00;;;;;;;3.28;78.73;97442.84;5020210;28;20501;-88
2022/03/08 08:26:39;;;;;;;28.20;16.08;;;;;;;3.48;77.46;97460.63;5028271;28;20029;-87
2022/03/08 08:29:05;;;;;;;35.83;18.15;;;;;;;3.47;79.67;97457.16;5018234;28;20032;-88
2022/03/08 08:31:32;;;;;;;32.30;18.13;;;;;;;3.42;79.19;97467.00;5019659;28;20029;-87
2022/03/08 08:33:58;;;;;;;31.55;16.50;;;;;;;3.65;79.02;97467.06;5009680;28;20031;-87
2022/03/08 08:36:23;;;;;;;27.88;15.50;;;;;;;3.54;75.98;97463.94;5017624;28;20021;-87
2022/03/08 08:38:49;;;;;;;32.22;16.95;;;;;;;3.69;78.33;97473.97;5011543;28;20055;-88
2022/03/08 08:41:15;;;;;;;32.00;16.83;;;;;;;3.63;76.42;97463.59;5024286;28;20026;-87
2022/03/08 08:43:41;;;;;;;36.00;15.95;;;;;;;3.54;75.71;97466.56;5016599;28;20547;-87
2022/03/08 08:46:06;;;;;;;30.20;16.52;;;;;;;3.71;78.18;97477.44;5026123;28;20504;-87
2022/03/08 08:48:32;;;;;;;31.23;16.58;;;;;;;3.61;80.88;97483.97;5014473;28;20162;-87
2022/03/08 08:50:58;;;;;;;29.13;15.25;;;;;;;3.72;77.48;97481.78;5020409;28;20017;-87
2022/03/08 08:53:26;;;;;;;29.17;15.70;;;;;;;3.81;76.78;97468.22;5025344;28;20408;-88
2022/03/08 08:55:52;;;;;;;27.08;14.50;;;;;;;3.77;75.50;97457.81;5031346;28;20156;-87
2022/03/08 08:58:18;;;;;;;29.30;16.52;;;;;;;3.65;75.02;97474.13;5051925;28;20032;-86
2022/03/08 09:00:43;;;;;;;35.35;17.15;;;;;;;3.45;76.70;97481.91;5026943;28;20096;-87
2022/03/08 09:03:14;;;;;;;27.90;15.25;;;;;;;3.41;76.17;97481.16;5039154;28;20052;-86
2022/03/08 09:05:43;;;;;;;27.55;15.15;;;;;;;3.24;74.18;97478.22;5023369;28;20040;-87
2022/03/08 09:08:09;;;;;;;31.70;16.55;;;;;;;2.99;78.58;97474.69;5022817;28;20029;-88
2022/03/08 09:10:35;;;;;;;37.42;17.88;;;;;;;3.30;80.48;97483.28;5022842;28;20477;-86
2022/03/08 09:13:01;;;;;;;30.80;16.02;;;;;;;3.50;76.22;97469.41;5032004;28;20055;-86
2022/03/08 09:15:27;;;;;;;32.22;16.45;;;;;;;3.55;75.01;97468.31;5042039;28;20032;-86
2022/03/08 09:17:52;;;;;;;32.20;17.77;;;;;;;3.72;73.89;97481.78;5024292;28;20061;-86
2022/03/08 09:20:18;;;;;;;31.35;17.35;;;;;;;3.78;72.36;97475.44;5026086;28;20030;-88
2022/03/08 09:22:44;;;;;;;25.85;14.15;;;;;;;3.94;72.54;97478.38;5040289;28;20035;-87
2022/03/08 09:25:09;;;;;;;27.73;15.13;;;;;;;3.91;71.45;97468.75;5031411;28;20021;-87
2022/03/08 09:27:35;;;;;;;33.78;17.00;;;;;;;3.69;74.27;97481.91;5026019;28;20033;-87
2022/03/08 09:30:03;;;;;;;27.95;15.25;;;;;;;3.74;71.47;97464.09;5037019;28;20021;-87
2022/03/08 09:32:31;;;;;;;27.80;15.25;;;;;;;3.97;72.68;97484.41;5037982;28;20067;-88
2022/03/08 09:34:57;;;;;;;28.42;14.82;;;;;;;3.86;72.50;97480.44;5020501;28;20033;-88
2022/03/08 09:37:23;;;;;;;22.92;12.65;;;;;;;3.92;68.64;97485.50;5022194;28;20120;-88
2022/03/08 09:39:48;;;;;;;48.38;20.80;;;;;;;3.93;70.66;97479.28;5033175;28;20029;-88
2022/03/08 09:42:14;;;;;;;39.05;18.30;;;;;;;4.19;71.80;97487.13;5021899;28;20066;-86
2022/03/08 09:44:40;;;;;;;29.40;14.85;;;;;;;4.28;68.56;97470.88;5036750;28;20033;-89
2022/03/08 09:47:06;;;;;;;28.63;16.13;;;;;;;4.34;68.17;97481.22;5040815;28;20040;-88
2022/03/08 09:49:32;;;;;;;27.33;15.32;;;;;;;4.56;66.89;97487.44;5036449;28;20111;-88
2022/03/08 09:51:58;;;;;;;47.75;24.15;;;;;;;4.71;67.66;97472.72;5034944;28;20032;-88
2022/03/08 09:54:23;;;;;;;27.88;15.70;;;;;;;4.60;67.13;97473.16;5031142;28;20040;-86
2022/03/08 09:56:49;;;;;;;27.10;15.18;;;;;;;4.62;67.92;97468.66;5030270;28;20050;-87
2022/03/08 09:59:18;;;;;;;26.90;14.52;;;;;;;5.07;65.95;97478.31;5061302;28;20056;-87
2022/03/08 10:01:45;;;;;;;27.55;15.15;;;;;;;5.19;66.84;97488.41;5034292;28;20017;-87
2022/03/08 10:04:16;;;;;;;28.23;14.98;;;;;;;5.05;64.28;97465.13;5043889;28;20591;-87
2022/03/08 10:06:44;;;;;;;36.88;21.00;;;;;;;5.29;65.94;97484.47;5028214;28;20106;-88
2022/03/08 10:09:17;;;;;;;27.38;16.30;;;;;;;5.51;66.54;97461.38;5057788;28;20021;-88
2022/03/08 10:15:34;;;;;;;27.60;15.10;;;;;;;5.04;62.72;97436.03;5002727;28;20036;-87
2022/03/08 10:18:00;;;;;;;24.00;13.13;;;;;;;4.76;62.16;97441.63;4965912;28;20439;-87
2022/03/08 10:20:31;;;;;;;28.70;15.40;;;;;;;4.36;63.02;97474.13;4959931;28;20026;-88
2022/03/08 10:22:57;;;;;;;59.53;30.15;;;;;;;4.36;65.95;97484.69;4997973;28;20033;-87
2022/03/08 10:25:25;;;;;;;25.20;14.35;;;;;;;4.42;64.66;97495.06;5039364;28;20032;-88
2022/03/08 10:27:54;;;;;;;31.02;16.85;;;;;;;4.46;63.66;97490.50;5028909;28;20039;-86
2022/03/08 10:30:26;;;;;;;26.52;14.60;;;;;;;4.35;64.85;97477.66;5054977;28;20036;-88
2022/03/08 10:32:59;;;;;;;24.88;13.70;;;;;;;3.81;67.45;97486.75;5055327;28;20029;-87
2022/03/08 10:35:29;;;;;;;31.17;15.82;;;;;;;4.11;68.20;97507.72;5039841;28;20025;-88
2022/03/08 10:38:04;;;;;;;31.80;17.80;;;;;;;4.06;68.18;97483.22;5041078;28;20021;-87
2022/03/08 10:40:32;;;;;;;30.17;16.23;;;;;;;4.02;68.61;97490.41;5042471;28;20121;-87
2022/03/08 10:43:09;;;;;;;31.80;15.63;;;;;;;3.45;70.32;97488.06;5042852;28;20029;-87
2022/03/08 10:45:37;;;;;;;29.30;15.07;;;;;;;3.47;71.22;97490.66;5043182;28;20025;-87
2022/03/08 10:48:07;;;;;;;27.77;15.10;;;;;;;3.26;71.99;97514.25;5035734;28;20032;-86
2022/03/08 10:50:35;;;;;;;27.27;14.38;;;;;;;3.19;72.10;97486.31;5021950;28;20029;-86
2022/03/08 10:53:03;;;;;;;29.45;16.27;;;;;;;3.10;74.25;97491.06;5047942;28;20167;-86
2022/03/08 10:55:37;;;;;;;30.50;14.75;;;;;;;3.17;73.33;97500.47;5042905;28;20053;-87
2022/03/08 10:58:05;;;;;;;24.23;13.90;;;;;;;3.31;74.37;97510.59;5020370;28;20029;-87
2022/03/08 11:00:54;;;;;;;30.52;16.48;;;;;;;2.97;74.64;97484.44;5032202;28;20025;-86
2022/03/08 11:03:21;;;;;;;30.80;15.90;;;;;;;2.49;75.58;97447.28;5035927;28;20085;-86
2022/03/08 11:05:50;;;;;;;30.95;15.40;;;;;;;2.89;77.51;97507.59;5024429;28;20029;-85
2022/03/08 11:08:16;;;;;;;49.47;23.38;;;;;;;2.84;77.12;97509.50;5020956;28;20021;-85
2022/03/08 11:10:43;;;;;;;60.08;26.30;;;;;;;3.12;77.55;97502.41;5041377;28;20081;-86
2022/03/08 11:13:10;;;;;;;28.85;15.63;;;;;;;3.29;73.69;97492.16;5023549;28;20029;-86
2022/03/08 11:15:38;;;;;;;31.48;17.30;;;;;;;3.52;73.69;97505.44;5017271;28;20032;-85
2022/03/08 11:18:09;;;;;;;31.73;14.98;;;;;;;3.35;73.07;97486.66;5016860;28;20037;-86
2022/03/08 11:20:35;;;;;;;32.85;17.20;;;;;;;3.79;72.50;97498.31;5019138;28;20468;-86
2022/03/08 11:23:01;;;;;;;29.60;16.85;;;;;;;3.70;73.88;97488.91;5043127;28;20017;-86
2022/03/08 11:25:30;;;;;;;29.83;15.68;;;;;;;4.11;69.96;97490.06;5026509;28;20124;-86
2022/03/08 11:27:56;;;;;;;33.13;17.27;;;;;;;3.94;68.28;97475.75;5030016;28;20025;-86
2022/03/08 11:30:28;;;;;;;48.95;22.35;;;;;;;4.00;68.68;97497.50;5036038;28;20086;-86
2022/03/08 11:33:17;;;;;;;29.65;15.52;;;;;;;3.74;71.55;97493.19;5028940;28;20090;-87
2022/03/08 11:36:20;;;;;;;27.98;14.18;;;;;;;3.66;71.66;97508.44;5044515;28;20524;-87
2022/03/08 11:39:21;;;;;;;36.38;18.20;;;;;;;3.62;70.78;97500.69;5032426;28;20037;-87
2022/03/08 11:41:50;;;;;;;31.30;16.83;;;;;;;3.40;73.30;97483.84;5014579;28;20037;-86
2022/03/08 11:44:24;;;;;;;32.30;16.88;;;;;;;3.63;70.33;97490.03;5030930;28;20119;-87